< < Back
Terminal Aerodrome Forecast


Current Version              Previous Versions:   1  2  3  4  5  6  7  8  9  

Terminal Aerodrome Forecast

587
FTUS42 KFFC 042343
TAFPDK
TAF
KPDK 042343Z 0500/0524 04003KT P6SM SCT070 SCT250
      TEMPO 0500/0501 VRB10G20KT 3SM -TSRA BKN050CB
     FM050500 04003KT P6SM SCT110
     FM051400 08005KT P6SM SCT050
     FM051800 08006KT P6SM VCSH BKN050 PROB30 0518/0524 5SM -TSRA
      BKN045CB=



Latest METAR

594
SAUS70 KWBC 051556
MTRPDK
METAR KPDK 051553Z 09005KT 10SM CLR 27/20 A3016 RMK AO2 SLP197
T02720200


USA.gov is the U.S. government's official web portal to all federal, state and local government web resources and services.